Terminal Aerodrome Forecast
Issued by NWS

Home | Current Version | Previous Version | Text Only | Print | Product List | Glossary Off
Versions: 1 2 3 4 5 6 7 8 9 10 11 12 13 14 15 16 17 18 19 20 21 22 23 24

000
FTUS43 KBIS 281700
TAFDIK
TAF
KDIK 281727Z 2818/2918 04016G22KT P6SM SCT015 OVC045
      TEMPO 2819/2823 BKN015 OVC045
     FM282300 05013G18KT P6SM VCSH BKN015 OVC025
     FM290200 06015KT 5SM BR VCSH BKN007 OVC011
     FM290700 07010KT 3SM BR VCSH SCT001 OVC006=

USA.gov is the U.S. government's official web portal to all federal, state and local government web resources and services.